Buckingham, VA (23921)

01:54 PM EDT del 29 Luglio 2015 (GMT -0400)
Buckingham Courthouse | | Change Station
CLOSE
Current Station
Stazione meteo personale
Location: Buckingham, VA
Altitudine: 472 ft
Stazioni meteo nelle vicinanze

Alt. 472 ft 37.55 °N, 78.55 °W | Updated 4 seconds ago

Coperto
Coperto
82.9 °F
Sembra 92 °F
N
2.0
Vento Variabile Vento da ONO
Gusts 4.0 mph

Oggi
Massima -- | Minima -- °F
--% Possibilità di precip.
Ieri
Massima -- | Minima -- °F
Precip. -- in
6:15 AM 8:25 PM
Gobba a ponente, 96% visible
Pressione 30.01 in
Visibilità 10.0 miglia
Nuvole Molto nuvoloso 2400 ft
Molto nuvoloso 3200 ft
Coperto 4400 ft
Indice di calore 92 °F
Punto di rugiada 78 °F
Umidità 84%
Piovosità 0.02 in
Spessore del manto nevoso Non disponibile.
Raggi UV 3 fuori da 12
Polline 2.70 fuori da 12
Qualità dell'aria Non disponibile.
Flu Activity Non disponibile.
METAR KFVX 291735Z AUTO 21005KT 10SM BKN024 BKN032 OVC044 29/23 A3001 RMK AO2 T02920225

More Conditions Fewer Conditions

Pressione 30.01 in
Visibilità 10.0 miglia
Nuvole Molto nuvoloso 2400 ft
Molto nuvoloso 3200 ft
Coperto 4400 ft
Indice di calore 92 °F
Punto di rugiada 78 °F
Umidità 84%
Piovosità 0.02 in
Spessore del manto nevoso Non disponibile.
Raggi UV 3 fuori da 12
Polline 2.70 fuori da 12
Qualità dell'aria Non disponibile.
Flu Activity Non disponibile.
METAR KFVX 291735Z AUTO 21005KT 10SM BKN024 BKN032 OVC044 29/23 A3001 RMK AO2 T02920225

More Conditions Fewer Conditions

10-Day Weather Forecast

×

Almanac

Astronomia

Jul. 29, 2015 Alba Tramonto
Ora attuale
Crepuscolo civile
Crepuscolo nautico
Crepuscolo astronomico
Luna
Estensione della luce visibile
Lunghezza del giorno
Tomorrow will be .
, % of the Moon is Illuminated

Gli estremi di oggi

State Highs State Lows

Community

WunderPhotos

Upload Photos

1,842,135 foto caricate!

WunderBlogs® & News

Nearby

Qualità dell'aria

  Qualità dell'aria Indice AQ Inquinante
Not available.

Profondità neve

Stazione Profondità Altitudine

Attività sismica

Città  Distanza Mag. Data & Ora
Minimo Magnitudo Mostrato è 2.5.

Temperature delle acque costiere

Località Temperatura

Stations

Stazioni meteo nelle vicinanze

Ubicazione della stazione Temp. Raffreddamento del vento Punto di rugiada Umidità Vento Precip. Alt. Aggiornato Tipo